Time;durP1;ratioP1;P1;durP2;ratioP2;P2;SDS_P1;SDS_P2;PMS_P1;PMS_P2;Temp;Humidity;BMP_temperature;BMP_pressure;BME280_temperature;BME280_humidity;BME280_pressure;Samples;Min_cycle;Max_cycle;Signal;HPM_P1;HPM_P2
2022/11/14 00:01:06;;;;;;;45.47;21.27;;;;;;;;;;5014390;28;20029;-81
2022/11/14 00:03:32;;;;;;;46.17;23.30;;;;;;;;;;5003733;28;20041;-81
2022/11/14 00:05:57;;;;;;;48.45;23.02;;;;;;;;;;5009204;28;20044;-82
2022/11/14 00:08:26;;;;;;;47.13;21.77;;;;;;;;;;5012273;28;20041;-81
2022/11/14 00:10:54;;;;;;;49.95;22.58;;;;;;;;;;5031733;28;20048;-80
2022/11/14 00:13:19;;;;;;;45.92;22.38;;;;;;;;;;5023588;28;20030;-81
2022/11/14 00:15:49;;;;;;;44.70;21.52;;;;;;;;;;5026453;28;20527;-81
2022/11/14 00:18:15;;;;;;;48.95;22.27;;;;;;;;;;5002188;28;20734;-81
2022/11/14 00:20:40;;;;;;;47.97;22.67;;;;;;;;;;5013018;28;20033;-82
2022/11/14 00:23:05;;;;;;;47.63;23.50;;;;;;;;;;5013967;28;20820;-81
2022/11/14 00:25:31;;;;;;;44.45;22.45;;;;;;;;;;5013865;28;20034;-81
2022/11/14 00:28:00;;;;;;;50.17;21.95;;;;;;;;;;5015777;28;20033;-80
2022/11/14 00:30:26;;;;;;;47.85;21.98;;;;;;;;;;5012805;28;20053;-80
2022/11/14 00:32:52;;;;;;;48.13;22.85;;;;;;;;;;5015178;28;20660;-80
2022/11/14 00:35:20;;;;;;;46.95;22.85;;;;;;;;;;5012259;28;20493;-79
2022/11/14 00:37:45;;;;;;;43.28;21.95;;;;;;;;;;5012361;28;20557;-80
2022/11/14 00:40:13;;;;;;;48.47;22.88;;;;;;;;;;5010076;28;20116;-80
2022/11/14 00:42:38;;;;;;;49.28;22.25;;;;;;;;;;5012930;28;20040;-80
2022/11/14 00:45:04;;;;;;;47.83;22.88;;;;;;;;;;5029266;28;20030;-80
2022/11/14 00:47:30;;;;;;;50.60;23.63;;;;;;;;;;5012660;28;20059;-81
2022/11/14 00:49:55;;;;;;;53.47;24.35;;;;;;;;;;5016386;28;20022;-81
2022/11/14 00:52:21;;;;;;;48.40;22.55;;;;;;;;;;5013023;28;20107;-80
2022/11/14 00:54:46;;;;;;;48.80;22.90;;;;;;;;;;5010898;28;20052;-80
2022/11/14 00:57:12;;;;;;;52.28;22.98;;;;;;;;;;5013659;28;20469;-80
2022/11/14 00:59:40;;;;;;;49.53;22.63;;;;;;;;;;5011494;28;20033;-82
2022/11/14 01:02:05;;;;;;;48.70;23.50;;;;;;;;;;5008154;28;20030;-80
2022/11/14 01:04:33;;;;;;;49.00;23.40;;;;;;;;;;5029011;28;20103;-80
2022/11/14 01:06:59;;;;;;;53.75;23.85;;;;;;;;;;4994480;28;20397;-81
2022/11/14 01:09:24;;;;;;;50.95;22.38;;;;;;;;;;5008284;28;20049;-80
2022/11/14 01:11:50;;;;;;;54.65;24.45;;;;;;;;;;5005252;28;20040;-80
2022/11/14 01:14:15;;;;;;;50.97;23.83;;;;;;;;;;5012288;28;20025;-80
2022/11/14 01:16:41;;;;;;;56.08;24.33;;;;;;;;;;5013681;28;20041;-80
2022/11/14 01:19:06;;;;;;;46.63;21.50;;;;;;;;;;5011952;28;20404;-82
2022/11/14 01:21:32;;;;;;;56.78;23.35;;;;;;;;;;5015460;28;20542;-82
2022/11/14 01:23:57;;;;;;;55.65;23.92;;;;;;;;;;5011567;28;20068;-81
2022/11/14 01:26:22;;;;;;;55.90;23.92;;;;;;;;;;4995711;28;20199;-80
2022/11/14 01:28:48;;;;;;;56.97;25.35;;;;;;;;;;5010762;28;20033;-82
2022/11/14 01:31:24;;;;;;;52.70;24.95;;;;;;;;;;5010801;28;20025;-81
2022/11/14 01:33:51;;;;;;;50.95;23.08;;;;;;;;;;5027804;28;20521;-81
2022/11/14 01:36:17;;;;;;;52.87;23.73;;;;;;;;;;5012476;28;20030;-81
2022/11/14 01:38:42;;;;;;;55.05;25.08;;;;;;;;;;5024410;28;20041;-82
2022/11/14 01:41:08;;;;;;;58.00;24.63;;;;;;;;;;5008115;28;20056;-83
2022/11/14 01:43:36;;;;;;;52.25;22.50;;;;;;;;;;5018678;28;20132;-82
2022/11/14 01:46:02;;;;;;;51.65;23.67;;;;;;;;;;5015488;28;20529;-81
2022/11/14 01:48:32;;;;;;;55.97;23.48;;;;;;;;;;5024455;28;20049;-81
2022/11/14 01:51:06;;;;;;;57.15;24.83;;;;;;;;;;5011854;28;20481;-81
2022/11/14 01:53:32;;;;;;;59.28;25.50;;;;;;;;;;5026563;28;20033;-82
2022/11/14 01:55:59;;;;;;;55.30;22.92;;;;;;;;;;5011412;28;20496;-82
2022/11/14 01:58:26;;;;;;;56.97;24.45;;;;;;;;;;5030270;28;20033;-81
2022/11/14 02:00:52;;;;;;;57.83;24.58;;;;;;;;;;5026686;28;20079;-82
2022/11/14 02:03:17;;;;;;;53.17;23.00;;;;;;;;;;5027392;28;20447;-83
2022/11/14 02:05:44;;;;;;;53.30;24.02;;;;;;;;;;5013984;28;20153;-81
2022/11/14 02:08:11;;;;;;;59.40;24.92;;;;;;;;;;5012530;28;20048;-82
2022/11/14 02:10:37;;;;;;;49.55;22.95;;;;;;;;;;5007476;28;20428;-80
2022/11/14 02:13:02;;;;;;;58.55;24.60;;;;;;;;;;5025529;28;20065;-84
2022/11/14 02:15:28;;;;;;;57.33;24.38;;;;;;;;;;5013518;28;20373;-82
2022/11/14 02:17:55;;;;;;;59.15;24.88;;;;;;;;;;5010228;28;20488;-79
2022/11/14 02:20:31;;;;;;;56.47;23.65;;;;;;;;;;5011625;28;20112;-79
2022/11/14 02:22:57;;;;;;;54.60;23.83;;;;;;;;;;5000890;28;20053;-80
2022/11/14 02:25:22;;;;;;;58.50;23.95;;;;;;;;;;5011758;28;20101;-81
2022/11/14 02:27:48;;;;;;;55.80;22.23;;;;;;;;;;5013671;28;20033;-81
2022/11/14 02:30:18;;;;;;;58.13;23.52;;;;;;;;;;5015366;28;20366;-81
2022/11/14 02:32:43;;;;;;;58.83;24.08;;;;;;;;;;5016061;28;20501;-81
2022/11/14 02:35:09;;;;;;;55.50;22.85;;;;;;;;;;5012724;28;20033;-84
2022/11/14 02:37:34;;;;;;;56.78;22.90;;;;;;;;;;5011260;28;20041;-84
2022/11/14 02:40:00;;;;;;;56.60;23.38;;;;;;;;;;5013550;28;20065;-83
2022/11/14 02:42:25;;;;;;;57.67;23.10;;;;;;;;;;5011651;28;20041;-82
2022/11/14 02:44:51;;;;;;;53.97;22.90;;;;;;;;;;5011738;28;20037;-83
2022/11/14 02:47:16;;;;;;;59.35;23.40;;;;;;;;;;5008786;28;20049;-84
2022/11/14 02:49:41;;;;;;;60.55;22.55;;;;;;;;;;5013263;28;20831;-83
2022/11/14 02:52:07;;;;;;;51.08;21.58;;;;;;;;;;5029349;28;20447;-82
2022/11/14 02:54:32;;;;;;;53.15;21.23;;;;;;;;;;5014140;28;20064;-83
2022/11/14 02:56:58;;;;;;;52.03;22.77;;;;;;;;;;5030156;28;20033;-83
2022/11/14 02:59:23;;;;;;;50.40;22.13;;;;;;;;;;5017060;28;20492;-83
2022/11/14 03:01:48;;;;;;;56.30;23.67;;;;;;;;;;5014430;28;20091;-82
2022/11/14 03:04:14;;;;;;;55.70;22.65;;;;;;;;;;5016726;28;20038;-83
2022/11/14 03:06:39;;;;;;;57.70;22.80;;;;;;;;;;5016417;28;20443;-83
2022/11/14 03:09:05;;;;;;;57.28;22.17;;;;;;;;;;5016057;28;20041;-83
2022/11/14 03:11:30;;;;;;;55.17;21.70;;;;;;;;;;5032376;28;20553;-83
2022/11/14 03:13:55;;;;;;;49.35;22.05;;;;;;;;;;5018100;28;20036;-82
2022/11/14 03:16:21;;;;;;;53.33;22.45;;;;;;;;;;5031135;28;20044;-83
2022/11/14 03:18:47;;;;;;;58.67;23.20;;;;;;;;;;5017221;28;20040;-82
2022/11/14 03:21:18;;;;;;;54.38;22.20;;;;;;;;;;5017813;28;20507;-84
2022/11/14 03:23:43;;;;;;;51.55;21.73;;;;;;;;;;5027113;28;20113;-83
2022/11/14 03:26:10;;;;;;;51.38;21.13;;;;;;;;;;5015339;28;20117;-83
2022/11/14 03:28:37;;;;;;;55.60;22.65;;;;;;;;;;5015776;28;20037;-82
2022/11/14 03:31:02;;;;;;;52.10;21.67;;;;;;;;;;5010732;28;20450;-83
2022/11/14 03:33:27;;;;;;;53.38;22.17;;;;;;;;;;5014801;28;20120;-83
2022/11/14 03:35:53;;;;;;;49.22;21.45;;;;;;;;;;5015022;28;20057;-83
2022/11/14 03:38:21;;;;;;;53.55;21.55;;;;;;;;;;5012226;28;20099;-83
2022/11/14 03:40:48;;;;;;;53.88;22.20;;;;;;;;;;5032878;28;20395;-83
2022/11/14 03:43:14;;;;;;;51.30;22.42;;;;;;;;;;5018975;28;20400;-82
2022/11/14 03:45:42;;;;;;;54.10;21.63;;;;;;;;;;5031854;28;20148;-82
2022/11/14 03:48:07;;;;;;;49.83;21.27;;;;;;;;;;5012375;28;20083;-83
2022/11/14 03:50:33;;;;;;;53.45;20.42;;;;;;;;;;5032807;28;20041;-83
2022/11/14 03:52:58;;;;;;;51.80;21.75;;;;;;;;;;5013555;28;20072;-83
2022/11/14 03:55:24;;;;;;;56.53;22.25;;;;;;;;;;5014988;28;20072;-83
2022/11/14 03:57:49;;;;;;;56.15;22.10;;;;;;;;;;5014833;28;20034;-83
2022/11/14 04:00:15;;;;;;;54.63;22.92;;;;;;;;;;5014776;28;20516;-83
2022/11/14 04:02:41;;;;;;;52.20;21.35;;;;;;;;;;5012907;28;20034;-82
2022/11/14 04:05:06;;;;;;;55.88;21.80;;;;;;;;;;5015431;28;20526;-83
2022/11/14 04:07:32;;;;;;;53.33;20.73;;;;;;;;;;4999996;28;20037;-83
2022/11/14 04:09:57;;;;;;;55.40;22.27;;;;;;;;;;5012337;28;20034;-83
2022/11/14 04:12:23;;;;;;;52.22;22.15;;;;;;;;;;5013857;28;20044;-83
2022/11/14 04:14:48;;;;;;;55.60;21.95;;;;;;;;;;5014235;28;20053;-83
2022/11/14 04:17:13;;;;;;;52.90;21.25;;;;;;;;;;5029472;28;20067;-83
2022/11/14 04:19:39;;;;;;;56.35;21.88;;;;;;;;;;5013239;28;20037;-83
2022/11/14 04:22:05;;;;;;;56.63;23.35;;;;;;;;;;5015529;28;20052;-83
2022/11/14 04:24:30;;;;;;;51.63;21.25;;;;;;;;;;5016213;28;20067;-83
2022/11/14 04:26:56;;;;;;;51.92;21.50;;;;;;;;;;5011084;28;20496;-83
2022/11/14 04:29:21;;;;;;;48.10;21.08;;;;;;;;;;5018891;28;20044;-83
2022/11/14 04:31:47;;;;;;;51.20;21.23;;;;;;;;;;5010495;28;20087;-83
2022/11/14 04:34:12;;;;;;;54.90;21.75;;;;;;;;;;5013031;28;20095;-82
2022/11/14 04:36:38;;;;;;;49.55;21.25;;;;;;;;;;5010755;28;20061;-83
2022/11/14 04:39:03;;;;;;;52.55;21.55;;;;;;;;;;5015274;28;20067;-83
2022/11/14 04:41:29;;;;;;;51.83;22.17;;;;;;;;;;5027042;28;20041;-83
2022/11/14 04:43:54;;;;;;;56.22;22.52;;;;;;;;;;5011141;28;20041;-83
2022/11/14 04:46:20;;;;;;;50.55;21.65;;;;;;;;;;5021258;28;20040;-83
2022/11/14 04:48:45;;;;;;;53.08;21.30;;;;;;;;;;4995046;28;20042;-83
2022/11/14 04:51:10;;;;;;;48.88;20.70;;;;;;;;;;5003991;28;20030;-83
2022/11/14 04:53:36;;;;;;;52.40;22.13;;;;;;;;;;5011939;28;20041;-82
2022/11/14 04:56:01;;;;;;;54.25;21.58;;;;;;;;;;5014495;28;20124;-84
2022/11/14 04:58:27;;;;;;;57.08;21.13;;;;;;;;;;5026777;28;20068;-83
2022/11/14 05:00:52;;;;;;;56.75;21.98;;;;;;;;;;5011711;28;20167;-84
2022/11/14 05:03:18;;;;;;;54.85;21.85;;;;;;;;;;5014272;28;20095;-83
2022/11/14 05:05:43;;;;;;;53.42;20.98;;;;;;;;;;5009682;28;20449;-83
2022/11/14 05:08:08;;;;;;;61.25;21.20;;;;;;;;;;5011704;28;20053;-83
2022/11/14 05:10:34;;;;;;;61.80;22.80;;;;;;;;;;5011368;28;20570;-86
2022/11/14 05:12:59;;;;;;;58.13;22.00;;;;;;;;;;5000228;28;20034;-90
2022/11/14 05:15:25;;;;;;;50.95;21.70;;;;;;;;;;5004310;28;20053;-88
2022/11/14 05:17:50;;;;;;;51.92;21.17;;;;;;;;;;4992091;28;20047;-88
2022/11/14 05:20:16;;;;;;;61.28;22.60;;;;;;;;;;4995324;28;20038;-90
2022/11/14 05:22:41;;;;;;;51.53;21.88;;;;;;;;;;5011610;28;20060;-88
2022/11/14 05:25:07;;;;;;;61.80;22.83;;;;;;;;;;5025179;28;20404;-88
2022/11/14 05:27:32;;;;;;;57.72;21.73;;;;;;;;;;5011893;28;20036;-88
2022/11/14 05:29:58;;;;;;;60.67;23.23;;;;;;;;;;5010613;28;20045;-89
2022/11/14 05:32:24;;;;;;;59.00;21.50;;;;;;;;;;5007422;28;20029;-87
2022/11/14 05:34:49;;;;;;;52.00;21.58;;;;;;;;;;5015153;28;20038;-87
2022/11/14 05:37:15;;;;;;;57.88;21.60;;;;;;;;;;5009045;28;20044;-87
2022/11/14 05:39:40;;;;;;;58.67;22.38;;;;;;;;;;5027550;28;20128;-89
2022/11/14 05:42:05;;;;;;;53.63;22.52;;;;;;;;;;5012024;28;20055;-89
2022/11/14 05:44:31;;;;;;;54.42;21.33;;;;;;;;;;5010887;28;20743;-88
2022/11/14 05:46:56;;;;;;;60.33;22.65;;;;;;;;;;5010092;28;20087;-86
2022/11/14 05:49:22;;;;;;;61.28;23.05;;;;;;;;;;5029420;28;20048;-91
2022/11/14 05:51:48;;;;;;;58.33;21.67;;;;;;;;;;5010739;28;20504;-84
2022/11/14 05:54:13;;;;;;;62.08;24.00;;;;;;;;;;5009287;28;20136;-81
2022/11/14 05:56:39;;;;;;;70.13;24.58;;;;;;;;;;5012737;28;20041;-82
2022/11/14 05:59:04;;;;;;;76.75;29.38;;;;;;;;;;5027750;28;20037;-81
2022/11/14 06:01:29;;;;;;;74.05;28.95;;;;;;;;;;5011798;28;20038;-82
2022/11/14 06:03:55;;;;;;;65.78;23.63;;;;;;;;;;5014729;28;20041;-84
2022/11/14 06:06:20;;;;;;;59.83;22.10;;;;;;;;;;5015337;28;20060;-82
2022/11/14 06:08:47;;;;;;;56.33;21.65;;;;;;;;;;5011893;28;20045;-83
2022/11/14 06:11:17;;;;;;;61.80;23.98;;;;;;;;;;5023854;28;20035;-82
2022/11/14 06:13:43;;;;;;;62.17;23.60;;;;;;;;;;5028745;28;20041;-83
2022/11/14 06:16:16;;;;;;;58.73;22.60;;;;;;;;;;5010648;28;20054;-90
2022/11/14 06:18:42;;;;;;;59.22;22.60;;;;;;;;;;5008527;28;20141;-91
2022/11/14 06:21:14;;;;;;;61.45;23.50;;;;;;;;;;5017527;28;20108;-85
2022/11/14 06:23:40;;;;;;;54.85;22.58;;;;;;;;;;5011501;28;20523;-80
2022/11/14 06:26:09;;;;;;;61.30;22.63;;;;;;;;;;5017273;28;20033;-80
2022/11/14 06:28:35;;;;;;;55.28;21.08;;;;;;;;;;5014857;28;20480;-79
2022/11/14 06:31:02;;;;;;;57.08;21.92;;;;;;;;;;5011835;28;20040;-79
2022/11/14 06:33:28;;;;;;;72.97;24.55;;;;;;;;;;5012505;28;20204;-80
2022/11/14 06:35:59;;;;;;;57.70;23.23;;;;;;;;;;5030366;28;20650;-80
2022/11/14 06:38:24;;;;;;;58.20;23.08;;;;;;;;;;5026586;28;20518;-79
2022/11/14 06:40:49;;;;;;;59.83;23.23;;;;;;;;;;5014816;28;20034;-80
2022/11/14 06:43:16;;;;;;;57.08;22.83;;;;;;;;;;5010660;28;20190;-80
2022/11/14 06:45:42;;;;;;;59.97;23.20;;;;;;;;;;5002049;28;20033;-80
2022/11/14 06:48:07;;;;;;;61.03;23.02;;;;;;;;;;5016481;28;21129;-80
2022/11/14 06:50:33;;;;;;;57.70;22.77;;;;;;;;;;5014457;28;20397;-80
2022/11/14 06:52:58;;;;;;;61.53;22.70;;;;;;;;;;5015308;28;20029;-79
2022/11/14 06:55:24;;;;;;;57.53;22.00;;;;;;;;;;5029857;28;20905;-86
2022/11/14 06:57:53;;;;;;;60.40;23.92;;;;;;;;;;5010989;28;20138;-87
2022/11/14 07:00:19;;;;;;;64.40;23.55;;;;;;;;;;5018092;28;20045;-85
2022/11/14 07:02:46;;;;;;;54.63;21.85;;;;;;;;;;5027345;28;20034;-85
2022/11/14 07:05:11;;;;;;;61.85;24.70;;;;;;;;;;5012937;28;20041;-86
2022/11/14 07:07:37;;;;;;;60.13;22.60;;;;;;;;;;5009938;28;20838;-85
2022/11/14 07:10:02;;;;;;;57.08;22.85;;;;;;;;;;5032041;28;20049;-86
2022/11/14 07:12:28;;;;;;;57.55;21.58;;;;;;;;;;5013487;28;20042;-85
2022/11/14 07:14:54;;;;;;;61.20;22.65;;;;;;;;;;5016101;28;20061;-86
2022/11/14 07:17:19;;;;;;;55.35;20.92;;;;;;;;;;5015749;28;20032;-86
2022/11/14 07:19:44;;;;;;;61.05;22.52;;;;;;;;;;5028126;28;20997;-87
2022/11/14 07:22:10;;;;;;;62.92;26.05;;;;;;;;;;5030089;28;20516;-91
2022/11/14 07:24:35;;;;;;;62.65;24.77;;;;;;;;;;5017494;28;20041;-86
2022/11/14 07:27:01;;;;;;;56.75;22.48;;;;;;;;;;5033011;28;20115;-86
2022/11/14 07:29:26;;;;;;;52.75;20.67;;;;;;;;;;5029477;28;20045;-86
2022/11/14 07:32:12;;;;;;;53.25;22.13;;;;;;;;;;5012827;28;20043;-87
2022/11/14 07:34:40;;;;;;;57.42;22.27;;;;;;;;;;4954754;28;20419;-83
2022/11/14 07:37:05;;;;;;;54.45;21.67;;;;;;;;;;4916055;28;20846;-84
2022/11/14 07:39:31;;;;;;;59.75;22.15;;;;;;;;;;4937149;28;20046;-85
2022/11/14 07:41:56;;;;;;;52.75;20.42;;;;;;;;;;4944723;28;20039;-85
2022/11/14 07:44:21;;;;;;;48.35;19.85;;;;;;;;;;4953259;28;20035;-85
2022/11/14 07:46:48;;;;;;;51.25;19.33;;;;;;;;;;4923389;28;20094;-86
2022/11/14 07:49:14;;;;;;;53.17;21.67;;;;;;;;;;4955328;28;20034;-86
2022/11/14 07:51:39;;;;;;;50.00;20.17;;;;;;;;;;4923119;28;20483;-85
2022/11/14 07:54:05;;;;;;;52.42;19.67;;;;;;;;;;4946670;28;20090;-85
2022/11/14 07:56:30;;;;;;;52.38;19.90;;;;;;;;;;4924572;28;20510;-85
2022/11/14 07:58:57;;;;;;;52.70;22.38;;;;;;;;;;4952915;28;20042;-86
2022/11/14 08:01:22;;;;;;;49.58;20.83;;;;;;;;;;4939061;28;20430;-84
2022/11/14 08:03:48;;;;;;;48.22;20.20;;;;;;;;;;4925087;28;20045;-87
2022/11/14 08:06:15;;;;;;;52.90;21.20;;;;;;;;;;4938862;28;20067;-86
2022/11/14 08:08:40;;;;;;;52.60;21.63;;;;;;;;;;4956189;28;20054;-85
2022/11/14 08:11:06;;;;;;;52.22;22.70;;;;;;;;;;4973737;28;20522;-85
2022/11/14 08:13:32;;;;;;;47.03;19.52;;;;;;;;;;5000875;28;20060;-86
2022/11/14 08:16:00;;;;;;;50.95;19.85;;;;;;;;;;5010918;28;20044;-85
2022/11/14 08:18:25;;;;;;;47.65;19.35;;;;;;;;;;5014327;28;20049;-86
2022/11/14 08:20:51;;;;;;;47.10;20.42;;;;;;;;;;5011247;28;20037;-87
2022/11/14 08:23:16;;;;;;;49.92;21.60;;;;;;;;;;5014222;28;20099;-86
2022/11/14 08:25:42;;;;;;;50.47;19.95;;;;;;;;;;5014442;28;20435;-86
2022/11/14 08:28:07;;;;;;;50.83;21.05;;;;;;;;;;5013003;28;20117;-85
2022/11/14 08:30:33;;;;;;;47.10;19.35;;;;;;;;;;5016355;28;20049;-86
2022/11/14 08:33:02;;;;;;;43.25;19.38;;;;;;;;;;5014141;28;20059;-84
2022/11/14 08:35:28;;;;;;;43.30;18.92;;;;;;;;;;5014054;28;20037;-88
2022/11/14 08:37:53;;;;;;;44.10;19.20;;;;;;;;;;5028028;28;20037;-84
2022/11/14 08:40:19;;;;;;;42.10;18.10;;;;;;;;;;5011945;28;20029;-85
2022/11/14 08:42:44;;;;;;;50.15;20.48;;;;;;;;;;5013967;28;20033;-85
2022/11/14 08:45:10;;;;;;;46.05;20.38;;;;;;;;;;5012804;28;20044;-83
2022/11/14 08:47:35;;;;;;;41.70;19.45;;;;;;;;;;5011320;28;20087;-85
2022/11/14 08:50:00;;;;;;;45.38;18.60;;;;;;;;;;5013986;28;20496;-86
2022/11/14 08:52:26;;;;;;;44.83;18.30;;;;;;;;;;5011138;28;20041;-85
2022/11/14 08:54:51;;;;;;;44.47;19.15;;;;;;;;;;5015384;28;20531;-85
2022/11/14 08:57:17;;;;;;;46.53;19.27;;;;;;;;;;5012496;28;20065;-87
2022/11/14 08:59:42;;;;;;;42.53;18.38;;;;;;;;;;5013775;28;20042;-85
2022/11/14 09:02:12;;;;;;;44.63;18.77;;;;;;;;;;5014061;28;20037;-85
2022/11/14 09:04:38;;;;;;;40.33;18.63;;;;;;;;;;5014348;28;20045;-85
2022/11/14 09:07:03;;;;;;;45.40;17.85;;;;;;;;;;5014799;28;20482;-85
2022/11/14 09:09:28;;;;;;;43.85;18.95;;;;;;;;;;5013972;28;20053;-85
2022/11/14 09:11:54;;;;;;;41.15;18.50;;;;;;;;;;5014368;28;20025;-85
2022/11/14 09:14:19;;;;;;;41.42;18.17;;;;;;;;;;5012905;28;20049;-87
2022/11/14 09:16:46;;;;;;;43.75;18.90;;;;;;;;;;5007437;28;20132;-88
2022/11/14 09:19:12;;;;;;;45.13;18.85;;;;;;;;;;5002357;28;20033;-87
2022/11/14 09:21:37;;;;;;;56.80;22.98;;;;;;;;;;5004934;28;20037;-87
2022/11/14 09:24:03;;;;;;;49.33;22.00;;;;;;;;;;5005214;28;20071;-84
2022/11/14 09:26:28;;;;;;;40.10;17.90;;;;;;;;;;5005515;28;20044;-85
2022/11/14 09:28:54;;;;;;;43.90;17.60;;;;;;;;;;5004049;28;20084;-83
2022/11/14 09:31:19;;;;;;;44.60;19.38;;;;;;;;;;5025506;28;20130;-82
2022/11/14 09:33:44;;;;;;;39.00;17.00;;;;;;;;;;5014088;28;20039;-83
2022/11/14 09:36:14;;;;;;;37.97;17.65;;;;;;;;;;5010889;28;20124;-83
2022/11/14 09:38:43;;;;;;;43.55;17.80;;;;;;;;;;5015926;28;20493;-84
2022/11/14 09:41:20;;;;;;;37.53;16.92;;;;;;;;;;5015992;28;20488;-84
2022/11/14 09:43:57;;;;;;;36.72;16.63;;;;;;;;;;5028729;28;20124;-83
2022/11/14 09:46:26;;;;;;;40.17;17.90;;;;;;;;;;5042573;28;20037;-83
2022/11/14 09:48:52;;;;;;;38.50;17.48;;;;;;;;;;5029099;28;20049;-82
2022/11/14 09:51:23;;;;;;;35.28;16.15;;;;;;;;;;5014122;28;20034;-85
2022/11/14 09:54:15;;;;;;;42.10;18.92;;;;;;;;;;5012279;28;20048;-82
2022/11/14 09:56:44;;;;;;;39.92;17.40;;;;;;;;;;4994527;28;20069;-84
2022/11/14 09:59:13;;;;;;;37.97;16.45;;;;;;;;;;5012164;28;20029;-85
2022/11/14 10:01:47;;;;;;;35.90;16.27;;;;;;;;;;5013612;28;20038;-84
2022/11/14 10:04:23;;;;;;;39.92;17.33;;;;;;;;;;5031944;28;20037;-85
2022/11/14 10:07:14;;;;;;;39.72;16.45;;;;;;;;;;5012500;28;20125;-83
2022/11/14 10:10:18;;;;;;;35.58;17.02;;;;;;;;;;4992389;28;20042;-85
2022/11/14 10:13:02;;;;;;;40.60;17.67;;;;;;;;;;5028655;28;20041;-83
2022/11/14 10:15:49;;;;;;;31.52;15.52;;;;;;;;;;5034572;28;20137;-84
2022/11/14 10:18:32;;;;;;;32.03;15.57;;;;;;;;;;5014887;28;20041;-85
2022/11/14 10:21:02;;;;;;;30.83;14.82;;;;;;;;;;5014897;28;20095;-85
2022/11/14 10:23:44;;;;;;;32.70;15.00;;;;;;;;;;5017077;28;20065;-84
2022/11/14 10:26:31;;;;;;;32.75;15.75;;;;;;;;;;5034264;28;20025;-84
2022/11/14 10:29:19;;;;;;;31.73;15.38;;;;;;;;;;5032449;28;20069;-84
2022/11/14 10:31:50;;;;;;;31.90;15.45;;;;;;;;;;5029379;28;20056;-83
2022/11/14 10:34:35;;;;;;;34.17;15.23;;;;;;;;;;5043039;28;20053;-84
2022/11/14 10:37:24;;;;;;;32.60;15.70;;;;;;;;;;5001794;28;20045;-82
2022/11/14 10:39:55;;;;;;;31.90;14.93;;;;;;;;;;5027855;28;20030;-85
2022/11/14 10:42:27;;;;;;;32.58;14.77;;;;;;;;;;5035008;28;20037;-83
2022/11/14 10:45:01;;;;;;;34.33;15.70;;;;;;;;;;5027581;28;20091;-84
2022/11/14 10:47:32;;;;;;;31.05;14.38;;;;;;;;;;5014962;28;20122;-84
2022/11/14 10:50:10;;;;;;;34.20;15.63;;;;;;;;;;5016231;28;20038;-85
2022/11/14 10:52:38;;;;;;;32.50;14.02;;;;;;;;;;5028491;28;20037;-84
2022/11/14 10:55:13;;;;;;;30.60;14.80;;;;;;;;;;5013250;28;20029;-83
2022/11/14 10:57:39;;;;;;;34.88;15.27;;;;;;;;;;4989619;28;20091;-86
2022/11/14 11:00:18;;;;;;;32.08;15.00;;;;;;;;;;5016968;28;20041;-84
2022/11/14 11:03:02;;;;;;;29.83;14.65;;;;;;;;;;5046166;28;20057;-84
2022/11/14 11:05:29;;;;;;;30.83;14.38;;;;;;;;;;5013961;28;20037;-84
2022/11/14 11:13:32;;;;;;;29.05;14.70;;;;;;;;;;5028716;28;20376;-84
2022/11/14 11:15:59;;;;;;;37.47;17.60;;;;;;;;;;5031034;28;20057;-84
2022/11/14 11:18:28;;;;;;;35.17;16.80;;;;;;;;;;5026759;28;20535;-84
2022/11/14 11:21:17;;;;;;;31.33;15.00;;;;;;;;;;5014292;28;20363;-85
2022/11/14 11:23:51;;;;;;;31.90;14.90;;;;;;;;;;4995104;28;20096;-86
2022/11/14 11:26:37;;;;;;;26.17;13.55;;;;;;;;;;5003253;28;20120;-83
2022/11/14 11:29:08;;;;;;;28.73;14.32;;;;;;;;;;5001602;28;20489;-88
2022/11/14 11:31:46;;;;;;;30.85;13.95;;;;;;;;;;5020804;28;20031;-84
2022/11/14 11:34:12;;;;;;;27.15;13.77;;;;;;;;;;5002132;28;20045;-85
2022/11/14 11:36:41;;;;;;;27.60;14.27;;;;;;;;;;5018842;28;20505;-83
2022/11/14 11:39:19;;;;;;;36.90;13.63;;;;;;;;;;5012954;28;20037;-83
2022/11/14 11:41:45;;;;;;;27.13;14.20;;;;;;;;;;5023219;28;20048;-83
2022/11/14 11:44:11;;;;;;;27.27;14.55;;;;;;;;;;5012862;28;20042;-84
2022/11/14 11:46:52;;;;;;;27.83;13.40;;;;;;;;;;5009673;28;20097;-85
2022/11/14 11:49:36;;;;;;;25.67;13.77;;;;;;;;;;5012381;28;20287;-83
2022/11/14 11:52:05;;;;;;;26.48;13.55;;;;;;;;;;5011653;28;20046;-83
2022/11/14 11:54:55;;;;;;;25.77;13.50;;;;;;;;;;4998112;28;20033;-83
2022/11/14 11:57:34;;;;;;;24.83;12.55;;;;;;;;;;4998903;28;20038;-83
2022/11/14 12:00:20;;;;;;;23.67;12.57;;;;;;;;;;5015397;28;20047;-83
2022/11/14 12:02:48;;;;;;;25.00;13.18;;;;;;;;;;5010841;28;20041;-84
2022/11/14 12:05:43;;;;;;;25.67;13.27;;;;;;;;;;4996221;28;20040;-84
2022/11/14 12:08:19;;;;;;;23.85;13.13;;;;;;;;;;5017542;28;20105;-86
2022/11/14 12:10:44;;;;;;;20.42;11.88;;;;;;;;;;5013782;28;20037;-85
2022/11/14 12:13:25;;;;;;;26.92;13.50;;;;;;;;;;5011936;28;20029;-84
2022/11/14 12:15:56;;;;;;;21.60;12.48;;;;;;;;;;5015219;28;20579;-84
2022/11/14 12:19:06;;;;;;;23.17;12.00;;;;;;;;;;5016025;28;20037;-83
2022/11/14 12:21:57;;;;;;;20.02;11.27;;;;;;;;;;4988805;28;20400;-84
2022/11/14 12:24:56;;;;;;;22.70;12.60;;;;;;;;;;4988746;28;20381;-84
2022/11/14 12:27:28;;;;;;;22.45;11.88;;;;;;;;;;5026673;28;20037;-86
2022/11/14 12:30:02;;;;;;;22.80;11.85;;;;;;;;;;5032041;28;20606;-85
2022/11/14 12:32:31;;;;;;;22.17;12.00;;;;;;;;;;5012214;28;20068;-85
2022/11/14 12:34:57;;;;;;;21.70;12.00;;;;;;;;;;5011211;28;20026;-87
2022/11/14 12:37:35;;;;;;;21.85;11.70;;;;;;;;;;5013351;28;20390;-85
2022/11/14 12:40:04;;;;;;;20.60;11.40;;;;;;;;;;4999779;28;20163;-84
2022/11/14 12:42:29;;;;;;;22.48;12.15;;;;;;;;;;4994107;28;20033;-83
2022/11/14 12:44:55;;;;;;;23.25;12.35;;;;;;;;;;5006474;28;20028;-84
2022/11/14 12:47:25;;;;;;;21.48;11.77;;;;;;;;;;5008953;28;20069;-84
2022/11/14 12:49:53;;;;;;;19.75;11.73;;;;;;;;;;5043544;28;20103;-84
2022/11/14 12:52:41;;;;;;;22.02;11.77;;;;;;;;;;5028602;28;20114;-85
2022/11/14 12:55:29;;;;;;;24.00;12.55;;;;;;;;;;5010390;28;20030;-85
2022/11/14 12:58:16;;;;;;;23.55;12.40;;;;;;;;;;5026818;28;20092;-85
2022/11/14 13:00:44;;;;;;;;;;;;;;;;;;5010969;28;20527;-87
2022/11/14 13:03:13;;;;;;;19.00;10.85;;;;;;;;;;5027730;28;19913;-86
2022/11/14 13:06:02;;;;;;;22.98;11.38;;;;;;;;;;5013682;28;20121;-87
2022/11/14 13:08:45;;;;;;;20.95;11.57;;;;;;;;;;5010843;28;20045;-86
2022/11/14 13:22:41;;;;;;;24.25;11.93;;;;;;;;;;5025535;28;20160;-84
2022/11/14 13:25:09;;;;;;;22.05;11.65;;;;;;;;;;5011541;28;20068;-84
2022/11/14 13:27:36;;;;;;;21.65;11.95;;;;;;;;;;5031309;28;20029;-86
2022/11/14 13:30:06;;;;;;;20.77;12.02;;;;;;;;;;5043889;28;20562;-86
2022/11/14 13:32:41;;;;;;;22.55;11.85;;;;;;;;;;4973964;28;20030;-84
2022/11/14 13:35:16;;;;;;;24.42;12.50;;;;;;;;;;5009431;28;20064;-84
2022/11/14 13:37:53;;;;;;;21.17;12.20;;;;;;;;;;4994155;28;20513;-83
2022/11/14 13:40:24;;;;;;;23.42;11.93;;;;;;;;;;5020724;28;20497;-82
2022/11/14 13:42:54;;;;;;;21.48;11.75;;;;;;;;;;5005136;28;20818;-83
2022/11/14 13:45:37;;;;;;;21.05;11.70;;;;;;;;;;5022398;28;20030;-83
2022/11/14 13:48:06;;;;;;;21.70;11.82;;;;;;;;;;4996645;28;20073;-84
2022/11/14 13:50:35;;;;;;;24.73;12.43;;;;;;;;;;5023116;28;20041;-83
2022/11/14 13:53:01;;;;;;;18.98;10.65;;;;;;;;;;5025969;28;20034;-83
2022/11/14 13:55:37;;;;;;;23.25;11.77;;;;;;;;;;5012099;28;20117;-83
2022/11/14 13:58:33;;;;;;;22.35;12.05;;;;;;;;;;5023161;28;20040;-85
2022/11/14 14:01:07;;;;;;;19.05;10.93;;;;;;;;;;5025795;28;20059;-85
2022/11/14 14:03:45;;;;;;;21.05;11.32;;;;;;;;;;5031713;28;20045;-86
2022/11/14 14:06:22;;;;;;;21.35;11.93;;;;;;;;;;5023372;28;20091;-86
2022/11/14 14:09:06;;;;;;;21.35;12.23;;;;;;;;;;5027174;28;20708;-85
2022/11/14 14:11:58;;;;;;;22.90;11.02;;;;;;;;;;5022063;28;20443;-85
2022/11/14 14:14:55;;;;;;;18.83;10.95;;;;;;;;;;4993732;28;20053;-86
2022/11/14 14:17:30;;;;;;;20.52;10.55;;;;;;;;;;4970827;28;20567;-85
2022/11/14 14:20:18;;;;;;;20.55;11.45;;;;;;;;;;4990497;28;20393;-85
2022/11/14 14:23:01;;;;;;;19.00;10.73;;;;;;;;;;5039501;28;20032;-86
2022/11/14 14:25:51;;;;;;;19.30;10.23;;;;;;;;;;5010219;28;20454;-84
2022/11/14 14:28:36;;;;;;;18.83;10.13;;;;;;;;;;4990392;28;20028;-85
2022/11/14 14:31:15;;;;;;;18.70;10.48;;;;;;;;;;5028159;28;20037;-85
2022/11/14 14:33:45;;;;;;;18.25;10.23;;;;;;;;;;5012082;28;20164;-85
2022/11/14 14:36:22;;;;;;;16.83;10.20;;;;;;;;;;5012393;28;20532;-85
2022/11/14 14:38:51;;;;;;;17.50;9.52;;;;;;;;;;5026972;28;20037;-86
2022/11/14 14:41:18;;;;;;;18.30;10.07;;;;;;;;;;5011548;28;20034;-85
2022/11/14 14:43:50;;;;;;;17.70;10.23;;;;;;;;;;5013132;28;20507;-85
2022/11/14 14:46:31;;;;;;;16.42;9.95;;;;;;;;;;5030467;28;20040;-85
2022/11/14 14:48:59;;;;;;;17.17;10.45;;;;;;;;;;5030402;28;20167;-85